sensor_id;sensor_type;location;lat;lon;timestamp;temperature;humidity
59307;DHT22;47983;53.016;-2.260;2023-09-30T00:01:31;11.70;99.90
59307;DHT22;47983;53.016;-2.260;2023-09-30T00:03:58;11.60;99.90
59307;DHT22;47983;53.016;-2.260;2023-09-30T00:06:29;11.60;99.90
59307;DHT22;47983;53.016;-2.260;2023-09-30T00:08:56;11.60;99.90
59307;DHT22;47983;53.016;-2.260;2023-09-30T00:11:24;11.60;99.90
59307;DHT22;47983;53.016;-2.260;2023-09-30T00:13:52;11.50;99.90
59307;DHT22;47983;53.016;-2.260;2023-09-30T00:16:19;11.50;99.90
59307;DHT22;47983;53.016;-2.260;2023-09-30T00:18:47;11.40;99.90
59307;DHT22;47983;53.016;-2.260;2023-09-30T00:21:15;11.40;99.90
59307;DHT22;47983;53.016;-2.260;2023-09-30T00:23:43;11.40;99.90
59307;DHT22;47983;53.016;-2.260;2023-09-30T00:26:11;11.40;99.90
59307;DHT22;47983;53.016;-2.260;2023-09-30T00:28:40;11.40;99.90
59307;DHT22;47983;53.016;-2.260;2023-09-30T00:31:08;11.40;99.90
59307;DHT22;47983;53.016;-2.260;2023-09-30T00:33:38;11.40;99.90
59307;DHT22;47983;53.016;-2.260;2023-09-30T00:36:10;11.40;99.90
59307;DHT22;47983;53.016;-2.260;2023-09-30T00:38:39;11.40;99.90
59307;DHT22;47983;53.016;-2.260;2023-09-30T00:41:07;11.40;99.90
59307;DHT22;47983;53.016;-2.260;2023-09-30T00:43:35;11.50;99.90
59307;DHT22;47983;53.016;-2.260;2023-09-30T00:46:14;11.50;99.90
59307;DHT22;47983;53.016;-2.260;2023-09-30T00:48:45;11.50;99.90
59307;DHT22;47983;53.016;-2.260;2023-09-30T00:51:13;11.50;99.90
59307;DHT22;47983;53.016;-2.260;2023-09-30T00:53:41;11.50;99.90
59307;DHT22;47983;53.016;-2.260;2023-09-30T00:56:10;11.50;99.90
59307;DHT22;47983;53.016;-2.260;2023-09-30T00:58:38;11.50;99.90
59307;DHT22;47983;53.016;-2.260;2023-09-30T01:01:09;11.50;99.90
59307;DHT22;47983;53.016;-2.260;2023-09-30T01:03:37;11.50;99.90
59307;DHT22;47983;53.016;-2.260;2023-09-30T01:06:06;11.40;99.90
59307;DHT22;47983;53.016;-2.260;2023-09-30T01:08:33;11.40;99.90
59307;DHT22;47983;53.016;-2.260;2023-09-30T01:11:02;11.40;99.90
59307;DHT22;47983;53.016;-2.260;2023-09-30T01:13:34;11.40;99.90
59307;DHT22;47983;53.016;-2.260;2023-09-30T01:16:09;11.30;99.90
59307;DHT22;47983;53.016;-2.260;2023-09-30T01:18:40;11.30;99.90
59307;DHT22;47983;53.016;-2.260;2023-09-30T01:21:11;11.20;99.90
59307;DHT22;47983;53.016;-2.260;2023-09-30T01:23:41;11.20;99.90
59307;DHT22;47983;53.016;-2.260;2023-09-30T01:26:13;11.20;99.90
59307;DHT22;47983;53.016;-2.260;2023-09-30T01:28:41;11.10;99.90
59307;DHT22;47983;53.016;-2.260;2023-09-30T01:31:09;11.10;99.90
59307;DHT22;47983;53.016;-2.260;2023-09-30T01:33:37;11.00;99.90
59307;DHT22;47983;53.016;-2.260;2023-09-30T01:36:06;11.00;99.90
59307;DHT22;47983;53.016;-2.260;2023-09-30T01:38:34;11.00;99.90
59307;DHT22;47983;53.016;-2.260;2023-09-30T01:41:01;10.90;99.90
59307;DHT22;47983;53.016;-2.260;2023-09-30T01:43:29;10.90;99.90
59307;DHT22;47983;53.016;-2.260;2023-09-30T01:45:57;10.90;99.90
59307;DHT22;47983;53.016;-2.260;2023-09-30T01:48:26;10.90;99.90
59307;DHT22;47983;53.016;-2.260;2023-09-30T01:50:53;10.80;99.90
59307;DHT22;47983;53.016;-2.260;2023-09-30T01:53:21;10.80;99.90
59307;DHT22;47983;53.016;-2.260;2023-09-30T01:55:49;10.80;99.90
59307;DHT22;47983;53.016;-2.260;2023-09-30T01:58:16;10.70;99.90
59307;DHT22;47983;53.016;-2.260;2023-09-30T02:00:45;10.70;99.90
59307;DHT22;47983;53.016;-2.260;2023-09-30T02:03:13;10.70;99.90
59307;DHT22;47983;53.016;-2.260;2023-09-30T02:05:41;10.60;99.90
59307;DHT22;47983;53.016;-2.260;2023-09-30T02:08:08;10.60;99.90
59307;DHT22;47983;53.016;-2.260;2023-09-30T02:10:36;10.60;99.90
59307;DHT22;47983;53.016;-2.260;2023-09-30T02:13:04;10.50;99.90
59307;DHT22;47983;53.016;-2.260;2023-09-30T02:15:34;10.60;99.90
59307;DHT22;47983;53.016;-2.260;2023-09-30T02:18:01;10.50;99.90
59307;DHT22;47983;53.016;-2.260;2023-09-30T02:20:31;10.50;99.90
59307;DHT22;47983;53.016;-2.260;2023-09-30T02:22:59;10.50;99.90
59307;DHT22;47983;53.016;-2.260;2023-09-30T02:25:30;10.50;99.90
59307;DHT22;47983;53.016;-2.260;2023-09-30T02:27:58;10.50;99.90
59307;DHT22;47983;53.016;-2.260;2023-09-30T02:30:26;10.50;99.90
59307;DHT22;47983;53.016;-2.260;2023-09-30T02:32:55;10.60;99.90
59307;DHT22;47983;53.016;-2.260;2023-09-30T02:35:26;10.50;99.90
59307;DHT22;47983;53.016;-2.260;2023-09-30T02:37:53;10.50;99.90
59307;DHT22;47983;53.016;-2.260;2023-09-30T02:40:21;10.50;99.90
59307;DHT22;47983;53.016;-2.260;2023-09-30T02:42:52;10.50;99.90
59307;DHT22;47983;53.016;-2.260;2023-09-30T02:45:20;10.50;99.90
59307;DHT22;47983;53.016;-2.260;2023-09-30T02:47:48;10.50;99.90
59307;DHT22;47983;53.016;-2.260;2023-09-30T02:50:16;10.50;99.90
59307;DHT22;47983;53.016;-2.260;2023-09-30T02:52:43;10.40;99.90
59307;DHT22;47983;53.016;-2.260;2023-09-30T02:55:12;10.40;99.90
59307;DHT22;47983;53.016;-2.260;2023-09-30T02:57:39;10.40;99.90
59307;DHT22;47983;53.016;-2.260;2023-09-30T03:00:09;10.40;99.90
59307;DHT22;47983;53.016;-2.260;2023-09-30T03:02:54;10.40;99.90
59307;DHT22;47983;53.016;-2.260;2023-09-30T03:05:22;10.40;99.90
59307;DHT22;47983;53.016;-2.260;2023-09-30T03:07:51;10.30;99.90
59307;DHT22;47983;53.016;-2.260;2023-09-30T03:10:19;10.30;99.90
59307;DHT22;47983;53.016;-2.260;2023-09-30T03:12:51;10.30;99.90
59307;DHT22;47983;53.016;-2.260;2023-09-30T03:15:19;10.30;99.90
59307;DHT22;47983;53.016;-2.260;2023-09-30T03:17:47;10.30;99.90
59307;DHT22;47983;53.016;-2.260;2023-09-30T03:20:20;10.30;99.90
59307;DHT22;47983;53.016;-2.260;2023-09-30T03:22:48;10.30;99.90
59307;DHT22;47983;53.016;-2.260;2023-09-30T03:25:18;10.30;99.90
59307;DHT22;47983;53.016;-2.260;2023-09-30T03:27:46;10.40;99.90
59307;DHT22;47983;53.016;-2.260;2023-09-30T03:30:15;10.30;99.90
59307;DHT22;47983;53.016;-2.260;2023-09-30T03:32:43;10.30;99.90
59307;DHT22;47983;53.016;-2.260;2023-09-30T03:35:12;10.30;99.90
59307;DHT22;47983;53.016;-2.260;2023-09-30T03:37:46;10.30;99.90
59307;DHT22;47983;53.016;-2.260;2023-09-30T03:40:14;10.30;99.90
59307;DHT22;47983;53.016;-2.260;2023-09-30T03:42:48;10.30;99.90
59307;DHT22;47983;53.016;-2.260;2023-09-30T03:45:18;10.40;99.90
59307;DHT22;47983;53.016;-2.260;2023-09-30T03:47:47;10.40;99.90
59307;DHT22;47983;53.016;-2.260;2023-09-30T03:50:16;10.40;99.90
59307;DHT22;47983;53.016;-2.260;2023-09-30T03:52:44;10.40;99.90
59307;DHT22;47983;53.016;-2.260;2023-09-30T03:55:16;10.40;99.90
59307;DHT22;47983;53.016;-2.260;2023-09-30T03:57:48;10.40;99.90
59307;DHT22;47983;53.016;-2.260;2023-09-30T04:00:16;10.40;99.90
59307;DHT22;47983;53.016;-2.260;2023-09-30T04:02:48;10.40;99.90
59307;DHT22;47983;53.016;-2.260;2023-09-30T04:05:18;10.40;99.90
59307;DHT22;47983;53.016;-2.260;2023-09-30T04:07:47;10.40;99.90
59307;DHT22;47983;53.016;-2.260;2023-09-30T04:10:15;10.40;99.90
59307;DHT22;47983;53.016;-2.260;2023-09-30T04:12:45;10.40;99.90
59307;DHT22;47983;53.016;-2.260;2023-09-30T04:15:13;10.40;99.90
59307;DHT22;47983;53.016;-2.260;2023-09-30T04:17:41;10.40;99.90
59307;DHT22;47983;53.016;-2.260;2023-09-30T04:20:09;10.40;99.90
59307;DHT22;47983;53.016;-2.260;2023-09-30T04:22:38;10.40;99.90
59307;DHT22;47983;53.016;-2.260;2023-09-30T04:25:06;10.30;99.90
59307;DHT22;47983;53.016;-2.260;2023-09-30T04:27:36;10.40;99.90
59307;DHT22;47983;53.016;-2.260;2023-09-30T04:30:05;10.30;99.90
59307;DHT22;47983;53.016;-2.260;2023-09-30T04:32:38;10.30;99.90
59307;DHT22;47983;53.016;-2.260;2023-09-30T04:35:07;10.30;99.90
59307;DHT22;47983;53.016;-2.260;2023-09-30T04:37:35;10.30;99.90
59307;DHT22;47983;53.016;-2.260;2023-09-30T04:40:09;10.20;99.90
59307;DHT22;47983;53.016;-2.260;2023-09-30T04:42:43;10.30;99.90
59307;DHT22;47983;53.016;-2.260;2023-09-30T04:45:15;10.30;99.90
59307;DHT22;47983;53.016;-2.260;2023-09-30T04:47:52;10.20;99.90
59307;DHT22;47983;53.016;-2.260;2023-09-30T04:50:20;10.20;99.90
59307;DHT22;47983;53.016;-2.260;2023-09-30T04:52:51;10.20;99.90
59307;DHT22;47983;53.016;-2.260;2023-09-30T04:55:19;10.30;99.90
59307;DHT22;47983;53.016;-2.260;2023-09-30T04:57:50;10.20;99.90
59307;DHT22;47983;53.016;-2.260;2023-09-30T05:00:19;10.20;99.90
59307;DHT22;47983;53.016;-2.260;2023-09-30T05:02:55;10.20;99.90
59307;DHT22;47983;53.016;-2.260;2023-09-30T05:05:23;10.20;99.90
59307;DHT22;47983;53.016;-2.260;2023-09-30T05:07:51;10.20;99.90
59307;DHT22;47983;53.016;-2.260;2023-09-30T05:10:18;10.20;99.90
59307;DHT22;47983;53.016;-2.260;2023-09-30T05:12:46;10.20;99.90
59307;DHT22;47983;53.016;-2.260;2023-09-30T05:15:16;10.20;99.90
59307;DHT22;47983;53.016;-2.260;2023-09-30T05:17:45;10.20;99.90
59307;DHT22;47983;53.016;-2.260;2023-09-30T05:20:14;10.30;99.90
59307;DHT22;47983;53.016;-2.260;2023-09-30T05:22:46;10.20;99.90
59307;DHT22;47983;53.016;-2.260;2023-09-30T05:25:15;10.20;99.90
59307;DHT22;47983;53.016;-2.260;2023-09-30T05:27:44;10.20;99.90
59307;DHT22;47983;53.016;-2.260;2023-09-30T05:30:12;10.20;99.90
59307;DHT22;47983;53.016;-2.260;2023-09-30T05:32:43;10.20;99.90
59307;DHT22;47983;53.016;-2.260;2023-09-30T05:35:11;10.20;99.90
59307;DHT22;47983;53.016;-2.260;2023-09-30T05:37:45;10.20;99.90
59307;DHT22;47983;53.016;-2.260;2023-09-30T05:40:13;10.20;99.90
59307;DHT22;47983;53.016;-2.260;2023-09-30T05:42:56;10.20;99.90
59307;DHT22;47983;53.016;-2.260;2023-09-30T05:45:30;10.20;99.90
59307;DHT22;47983;53.016;-2.260;2023-09-30T05:47:58;10.20;99.90
59307;DHT22;47983;53.016;-2.260;2023-09-30T05:50:30;10.20;99.90
59307;DHT22;47983;53.016;-2.260;2023-09-30T05:52:58;10.20;99.90
59307;DHT22;47983;53.016;-2.260;2023-09-30T05:55:27;10.20;99.90
59307;DHT22;47983;53.016;-2.260;2023-09-30T05:57:56;10.20;99.90
59307;DHT22;47983;53.016;-2.260;2023-09-30T06:00:24;10.20;99.90
59307;DHT22;47983;53.016;-2.260;2023-09-30T06:03:03;10.20;99.90
59307;DHT22;47983;53.016;-2.260;2023-09-30T06:05:41;10.20;99.90
59307;DHT22;47983;53.016;-2.260;2023-09-30T06:08:10;10.20;99.90
59307;DHT22;47983;53.016;-2.260;2023-09-30T06:10:43;10.20;99.90
59307;DHT22;47983;53.016;-2.260;2023-09-30T06:13:12;10.20;99.90
59307;DHT22;47983;53.016;-2.260;2023-09-30T06:15:41;10.10;99.90
59307;DHT22;47983;53.016;-2.260;2023-09-30T06:18:10;10.10;99.90
59307;DHT22;47983;53.016;-2.260;2023-09-30T06:20:41;10.10;99.90
59307;DHT22;47983;53.016;-2.260;2023-09-30T06:23:09;10.10;99.90
59307;DHT22;47983;53.016;-2.260;2023-09-30T06:25:41;10.10;99.90
59307;DHT22;47983;53.016;-2.260;2023-09-30T06:28:09;10.10;99.90
59307;DHT22;47983;53.016;-2.260;2023-09-30T06:30:40;10.20;99.90
59307;DHT22;47983;53.016;-2.260;2023-09-30T06:33:09;10.20;99.90
59307;DHT22;47983;53.016;-2.260;2023-09-30T06:35:41;10.20;99.90
59307;DHT22;47983;53.016;-2.260;2023-09-30T06:38:20;10.30;99.90
59307;DHT22;47983;53.016;-2.260;2023-09-30T06:40:48;10.30;99.90
59307;DHT22;47983;53.016;-2.260;2023-09-30T06:43:16;10.30;99.90
59307;DHT22;47983;53.016;-2.260;2023-09-30T06:45:46;10.40;99.90
59307;DHT22;47983;53.016;-2.260;2023-09-30T06:48:14;10.40;99.90
59307;DHT22;47983;53.016;-2.260;2023-09-30T06:50:47;10.40;99.90
59307;DHT22;47983;53.016;-2.260;2023-09-30T06:53:17;10.50;99.90
59307;DHT22;47983;53.016;-2.260;2023-09-30T06:55:46;10.50;99.90
59307;DHT22;47983;53.016;-2.260;2023-09-30T06:58:14;10.60;99.90
59307;DHT22;47983;53.016;-2.260;2023-09-30T07:00:42;10.60;99.90
59307;DHT22;47983;53.016;-2.260;2023-09-30T07:03:10;10.70;99.90
59307;DHT22;47983;53.016;-2.260;2023-09-30T07:05:40;10.70;99.90
59307;DHT22;47983;53.016;-2.260;2023-09-30T07:08:08;10.80;99.90
59307;DHT22;47983;53.016;-2.260;2023-09-30T07:10:36;10.90;99.90
59307;DHT22;47983;53.016;-2.260;2023-09-30T07:13:04;11.00;99.90
59307;DHT22;47983;53.016;-2.260;2023-09-30T07:15:34;11.10;99.90
59307;DHT22;47983;53.016;-2.260;2023-09-30T07:18:02;11.10;99.90
59307;DHT22;47983;53.016;-2.260;2023-09-30T07:20:30;11.20;99.90
59307;DHT22;47983;53.016;-2.260;2023-09-30T07:23:00;11.20;99.90
59307;DHT22;47983;53.016;-2.260;2023-09-30T07:25:45;11.30;99.90
59307;DHT22;47983;53.016;-2.260;2023-09-30T07:28:13;11.30;99.90
59307;DHT22;47983;53.016;-2.260;2023-09-30T07:30:40;11.40;99.90
59307;DHT22;47983;53.016;-2.260;2023-09-30T07:33:08;11.50;99.90
59307;DHT22;47983;53.016;-2.260;2023-09-30T07:35:37;11.50;99.90
59307;DHT22;47983;53.016;-2.260;2023-09-30T07:38:06;11.50;99.90
59307;DHT22;47983;53.016;-2.260;2023-09-30T07:40:37;11.50;99.90
59307;DHT22;47983;53.016;-2.260;2023-09-30T07:43:05;11.60;99.90
59307;DHT22;47983;53.016;-2.260;2023-09-30T07:45:35;11.60;99.90
59307;DHT22;47983;53.016;-2.260;2023-09-30T07:48:03;11.70;99.90
59307;DHT22;47983;53.016;-2.260;2023-09-30T07:50:32;11.70;99.90
59307;DHT22;47983;53.016;-2.260;2023-09-30T07:53:02;11.80;99.90
59307;DHT22;47983;53.016;-2.260;2023-09-30T07:55:33;11.80;99.90
59307;DHT22;47983;53.016;-2.260;2023-09-30T07:58:00;11.90;99.90
59307;DHT22;47983;53.016;-2.260;2023-09-30T08:00:28;11.90;99.90
59307;DHT22;47983;53.016;-2.260;2023-09-30T08:02:57;12.00;99.90
59307;DHT22;47983;53.016;-2.260;2023-09-30T08:05:28;12.00;99.90
59307;DHT22;47983;53.016;-2.260;2023-09-30T08:07:55;12.10;99.90
59307;DHT22;47983;53.016;-2.260;2023-09-30T08:10:23;12.10;99.90
59307;DHT22;47983;53.016;-2.260;2023-09-30T08:12:51;12.10;99.90
59307;DHT22;47983;53.016;-2.260;2023-09-30T08:15:19;12.20;99.90
59307;DHT22;47983;53.016;-2.260;2023-09-30T08:17:47;12.30;99.90
59307;DHT22;47983;53.016;-2.260;2023-09-30T08:20:14;12.40;99.90
59307;DHT22;47983;53.016;-2.260;2023-09-30T08:22:42;12.40;99.90
59307;DHT22;47983;53.016;-2.260;2023-09-30T08:25:10;12.60;99.90
59307;DHT22;47983;53.016;-2.260;2023-09-30T08:27:38;12.70;99.90
59307;DHT22;47983;53.016;-2.260;2023-09-30T08:30:07;12.80;99.90
59307;DHT22;47983;53.016;-2.260;2023-09-30T08:32:35;12.90;99.90
59307;DHT22;47983;53.016;-2.260;2023-09-30T08:35:03;12.90;99.90
59307;DHT22;47983;53.016;-2.260;2023-09-30T08:37:31;13.00;99.90
59307;DHT22;47983;53.016;-2.260;2023-09-30T08:39:59;13.00;99.90
59307;DHT22;47983;53.016;-2.260;2023-09-30T08:42:27;13.00;99.90
59307;DHT22;47983;53.016;-2.260;2023-09-30T08:45:01;13.10;99.90
59307;DHT22;47983;53.016;-2.260;2023-09-30T08:47:30;13.20;99.90
59307;DHT22;47983;53.016;-2.260;2023-09-30T08:49:59;13.20;99.90
59307;DHT22;47983;53.016;-2.260;2023-09-30T08:52:36;13.20;99.90
59307;DHT22;47983;53.016;-2.260;2023-09-30T08:55:08;13.30;99.90
59307;DHT22;47983;53.016;-2.260;2023-09-30T08:57:46;13.40;99.90
59307;DHT22;47983;53.016;-2.260;2023-09-30T09:00:16;13.50;99.90
59307;DHT22;47983;53.016;-2.260;2023-09-30T09:02:43;13.60;99.90
59307;DHT22;47983;53.016;-2.260;2023-09-30T09:05:11;13.60;99.90
59307;DHT22;47983;53.016;-2.260;2023-09-30T09:07:39;13.70;99.90
59307;DHT22;47983;53.016;-2.260;2023-09-30T09:10:12;13.70;99.90
59307;DHT22;47983;53.016;-2.260;2023-09-30T09:12:42;13.70;99.90
59307;DHT22;47983;53.016;-2.260;2023-09-30T09:15:22;13.80;99.90
59307;DHT22;47983;53.016;-2.260;2023-09-30T09:17:51;13.90;99.90
59307;DHT22;47983;53.016;-2.260;2023-09-30T09:20:21;14.00;99.90
59307;DHT22;47983;53.016;-2.260;2023-09-30T09:22:50;14.00;99.90
59307;DHT22;47983;53.016;-2.260;2023-09-30T09:25:21;14.10;99.90
59307;DHT22;47983;53.016;-2.260;2023-09-30T09:27:51;14.20;99.90
59307;DHT22;47983;53.016;-2.260;2023-09-30T09:30:21;14.30;99.90
59307;DHT22;47983;53.016;-2.260;2023-09-30T09:33:02;14.40;99.90
59307;DHT22;47983;53.016;-2.260;2023-09-30T09:35:34;14.40;99.90
59307;DHT22;47983;53.016;-2.260;2023-09-30T09:38:03;14.50;99.90
59307;DHT22;47983;53.016;-2.260;2023-09-30T09:40:36;14.40;99.90
59307;DHT22;47983;53.016;-2.260;2023-09-30T09:43:05;14.50;99.90
59307;DHT22;47983;53.016;-2.260;2023-09-30T09:45:35;14.50;99.90
59307;DHT22;47983;53.016;-2.260;2023-09-30T09:48:04;14.60;99.90
59307;DHT22;47983;53.016;-2.260;2023-09-30T09:50:32;14.70;99.90
59307;DHT22;47983;53.016;-2.260;2023-09-30T09:53:04;14.80;99.90
59307;DHT22;47983;53.016;-2.260;2023-09-30T09:55:33;14.80;99.90
59307;DHT22;47983;53.016;-2.260;2023-09-30T09:58:06;14.90;99.90
59307;DHT22;47983;53.016;-2.260;2023-09-30T10:00:35;14.90;99.90
59307;DHT22;47983;53.016;-2.260;2023-09-30T10:03:04;14.90;99.90
59307;DHT22;47983;53.016;-2.260;2023-09-30T10:05:33;15.00;99.90
59307;DHT22;47983;53.016;-2.260;2023-09-30T10:08:08;15.00;99.90
59307;DHT22;47983;53.016;-2.260;2023-09-30T10:10:37;15.10;99.90
59307;DHT22;47983;53.016;-2.260;2023-09-30T10:13:06;15.50;99.90
59307;DHT22;47983;53.016;-2.260;2023-09-30T10:15:36;15.30;99.90
59307;DHT22;47983;53.016;-2.260;2023-09-30T10:18:05;15.30;99.90
59307;DHT22;47983;53.016;-2.260;2023-09-30T10:20:41;15.40;99.90
59307;DHT22;47983;53.016;-2.260;2023-09-30T10:23:21;15.40;99.90
59307;DHT22;47983;53.016;-2.260;2023-09-30T10:25:51;15.40;99.90
59307;DHT22;47983;53.016;-2.260;2023-09-30T10:28:44;15.50;99.90
59307;DHT22;47983;53.016;-2.260;2023-09-30T10:31:22;15.60;99.90
59307;DHT22;47983;53.016;-2.260;2023-09-30T10:36:38;15.60;99.90
59307;DHT22;47983;53.016;-2.260;2023-09-30T10:39:14;15.70;99.90
59307;DHT22;47983;53.016;-2.260;2023-09-30T10:46:50;15.70;99.90
59307;DHT22;47983;53.016;-2.260;2023-09-30T10:51:53;15.70;99.90
59307;DHT22;47983;53.016;-2.260;2023-09-30T10:54:23;15.80;99.90
59307;DHT22;47983;53.016;-2.260;2023-09-30T10:56:51;15.80;99.90
59307;DHT22;47983;53.016;-2.260;2023-09-30T10:59:23;15.80;99.90
59307;DHT22;47983;53.016;-2.260;2023-09-30T11:01:52;15.70;99.90
59307;DHT22;47983;53.016;-2.260;2023-09-30T11:04:21;15.80;99.90
59307;DHT22;47983;53.016;-2.260;2023-09-30T11:06:49;15.70;99.90
59307;DHT22;47983;53.016;-2.260;2023-09-30T11:09:21;15.70;99.90
59307;DHT22;47983;53.016;-2.260;2023-09-30T11:11:51;15.60;99.90
59307;DHT22;47983;53.016;-2.260;2023-09-30T11:14:23;15.50;99.90
59307;DHT22;47983;53.016;-2.260;2023-09-30T11:16:58;15.50;99.90
59307;DHT22;47983;53.016;-2.260;2023-09-30T11:19:34;15.50;99.90
59307;DHT22;47983;53.016;-2.260;2023-09-30T11:22:02;15.50;99.90
59307;DHT22;47983;53.016;-2.260;2023-09-30T11:24:36;15.60;99.90
59307;DHT22;47983;53.016;-2.260;2023-09-30T11:27:05;15.60;99.90
59307;DHT22;47983;53.016;-2.260;2023-09-30T11:29:32;15.50;99.90
59307;DHT22;47983;53.016;-2.260;2023-09-30T11:32:01;15.50;99.90
59307;DHT22;47983;53.016;-2.260;2023-09-30T11:34:34;15.50;99.90
59307;DHT22;47983;53.016;-2.260;2023-09-30T11:37:02;15.50;99.90
59307;DHT22;47983;53.016;-2.260;2023-09-30T11:39:32;15.50;99.90
59307;DHT22;47983;53.016;-2.260;2023-09-30T11:42:01;15.50;99.90
59307;DHT22;47983;53.016;-2.260;2023-09-30T11:44:29;15.50;99.90
59307;DHT22;47983;53.016;-2.260;2023-09-30T11:47:00;15.40;99.90
59307;DHT22;47983;53.016;-2.260;2023-09-30T11:49:37;15.50;99.90
59307;DHT22;47983;53.016;-2.260;2023-09-30T11:52:09;15.50;99.90
59307;DHT22;47983;53.016;-2.260;2023-09-30T11:54:42;15.60;99.90
59307;DHT22;47983;53.016;-2.260;2023-09-30T11:57:14;15.60;99.90
59307;DHT22;47983;53.016;-2.260;2023-09-30T11:59:46;15.70;99.90
59307;DHT22;47983;53.016;-2.260;2023-09-30T12:02:15;15.70;99.90
59307;DHT22;47983;53.016;-2.260;2023-09-30T12:04:45;15.70;99.90
59307;DHT22;47983;53.016;-2.260;2023-09-30T12:07:15;15.70;99.90
59307;DHT22;47983;53.016;-2.260;2023-09-30T12:09:43;15.70;99.90
59307;DHT22;47983;53.016;-2.260;2023-09-30T12:12:11;15.70;99.90
59307;DHT22;47983;53.016;-2.260;2023-09-30T12:14:39;15.70;99.90
59307;DHT22;47983;53.016;-2.260;2023-09-30T12:17:07;15.70;99.90
59307;DHT22;47983;53.016;-2.260;2023-09-30T12:19:40;15.70;99.90
59307;DHT22;47983;53.016;-2.260;2023-09-30T12:22:09;15.70;99.90
59307;DHT22;47983;53.016;-2.260;2023-09-30T12:24:38;15.70;99.90
59307;DHT22;47983;53.016;-2.260;2023-09-30T12:27:07;15.60;99.90
59307;DHT22;47983;53.016;-2.260;2023-09-30T12:29:35;15.50;99.90
59307;DHT22;47983;53.016;-2.260;2023-09-30T12:32:06;15.50;99.90
59307;DHT22;47983;53.016;-2.260;2023-09-30T12:34:34;15.40;99.90
59307;DHT22;47983;53.016;-2.260;2023-09-30T12:37:03;15.40;99.90
59307;DHT22;47983;53.016;-2.260;2023-09-30T12:39:31;15.30;99.90
59307;DHT22;47983;53.016;-2.260;2023-09-30T12:42:01;15.30;99.90
59307;DHT22;47983;53.016;-2.260;2023-09-30T12:44:29;15.30;99.90
59307;DHT22;47983;53.016;-2.260;2023-09-30T12:46:58;15.10;99.90
59307;DHT22;47983;53.016;-2.260;2023-09-30T12:49:25;15.10;99.90
59307;DHT22;47983;53.016;-2.260;2023-09-30T12:51:53;15.00;99.90
59307;DHT22;47983;53.016;-2.260;2023-09-30T12:54:21;14.90;99.90
59307;DHT22;47983;53.016;-2.260;2023-09-30T12:56:48;14.90;99.90
59307;DHT22;47983;53.016;-2.260;2023-09-30T12:59:18;14.90;99.90
59307;DHT22;47983;53.016;-2.260;2023-09-30T13:01:47;14.80;99.90
59307;DHT22;47983;53.016;-2.260;2023-09-30T13:04:17;14.80;99.90
59307;DHT22;47983;53.016;-2.260;2023-09-30T13:06:46;14.80;99.90
59307;DHT22;47983;53.016;-2.260;2023-09-30T13:09:13;14.70;99.90
59307;DHT22;47983;53.016;-2.260;2023-09-30T13:11:41;14.70;99.90
59307;DHT22;47983;53.016;-2.260;2023-09-30T13:14:09;14.70;99.90
59307;DHT22;47983;53.016;-2.260;2023-09-30T13:16:38;14.60;99.90
59307;DHT22;47983;53.016;-2.260;2023-09-30T13:19:06;14.60;99.90
59307;DHT22;47983;53.016;-2.260;2023-09-30T13:21:34;14.50;99.90
59307;DHT22;47983;53.016;-2.260;2023-09-30T13:24:05;14.50;99.90
59307;DHT22;47983;53.016;-2.260;2023-09-30T13:26:35;14.40;99.90
59307;DHT22;47983;53.016;-2.260;2023-09-30T13:29:02;14.40;99.90
59307;DHT22;47983;53.016;-2.260;2023-09-30T13:31:32;14.30;99.90
59307;DHT22;47983;53.016;-2.260;2023-09-30T13:34:00;14.30;99.90
59307;DHT22;47983;53.016;-2.260;2023-09-30T13:36:28;14.20;99.90
59307;DHT22;47983;53.016;-2.260;2023-09-30T13:38:56;14.20;99.90
59307;DHT22;47983;53.016;-2.260;2023-09-30T13:41:24;14.20;99.90
59307;DHT22;47983;53.016;-2.260;2023-09-30T13:43:52;14.20;99.90
59307;DHT22;47983;53.016;-2.260;2023-09-30T13:46:20;14.20;99.90
59307;DHT22;47983;53.016;-2.260;2023-09-30T13:48:51;14.20;99.90
59307;DHT22;47983;53.016;-2.260;2023-09-30T13:51:20;14.20;99.90
59307;DHT22;47983;53.016;-2.260;2023-09-30T13:53:47;14.20;99.90
59307;DHT22;47983;53.016;-2.260;2023-09-30T13:56:15;14.20;99.90
59307;DHT22;47983;53.016;-2.260;2023-09-30T13:58:43;14.20;99.90
59307;DHT22;47983;53.016;-2.260;2023-09-30T14:01:14;14.20;99.90
59307;DHT22;47983;53.016;-2.260;2023-09-30T14:03:42;14.20;99.90
59307;DHT22;47983;53.016;-2.260;2023-09-30T14:06:11;14.20;99.90
59307;DHT22;47983;53.016;-2.260;2023-09-30T14:08:40;14.20;99.90
59307;DHT22;47983;53.016;-2.260;2023-09-30T14:11:13;14.20;99.90
59307;DHT22;47983;53.016;-2.260;2023-09-30T14:13:41;14.20;99.90
59307;DHT22;47983;53.016;-2.260;2023-09-30T14:16:10;14.20;99.90
59307;DHT22;47983;53.016;-2.260;2023-09-30T14:18:38;14.20;99.90
59307;DHT22;47983;53.016;-2.260;2023-09-30T14:21:07;14.20;99.90
59307;DHT22;47983;53.016;-2.260;2023-09-30T14:23:35;14.20;99.90
59307;DHT22;47983;53.016;-2.260;2023-09-30T14:26:06;14.20;99.90
59307;DHT22;47983;53.016;-2.260;2023-09-30T14:28:38;14.20;99.90
59307;DHT22;47983;53.016;-2.260;2023-09-30T14:31:06;14.20;99.90
59307;DHT22;47983;53.016;-2.260;2023-09-30T14:33:35;14.20;99.90
59307;DHT22;47983;53.016;-2.260;2023-09-30T14:36:03;14.20;99.90
59307;DHT22;47983;53.016;-2.260;2023-09-30T14:38:34;14.20;99.90
59307;DHT22;47983;53.016;-2.260;2023-09-30T14:41:06;14.20;99.90
59307;DHT22;47983;53.016;-2.260;2023-09-30T14:43:35;14.20;99.90
59307;DHT22;47983;53.016;-2.260;2023-09-30T14:46:02;14.20;99.90
59307;DHT22;47983;53.016;-2.260;2023-09-30T14:48:31;14.20;99.90
59307;DHT22;47983;53.016;-2.260;2023-09-30T14:50:59;14.20;99.90
59307;DHT22;47983;53.016;-2.260;2023-09-30T14:53:26;14.20;99.90
59307;DHT22;47983;53.016;-2.260;2023-09-30T14:55:54;14.20;99.90
59307;DHT22;47983;53.016;-2.260;2023-09-30T14:58:22;14.20;99.90
59307;DHT22;47983;53.016;-2.260;2023-09-30T15:00:50;14.20;99.90
59307;DHT22;47983;53.016;-2.260;2023-09-30T15:03:18;14.20;99.90
59307;DHT22;47983;53.016;-2.260;2023-09-30T15:05:46;14.20;99.90
59307;DHT22;47983;53.016;-2.260;2023-09-30T15:08:13;14.20;99.90
59307;DHT22;47983;53.016;-2.260;2023-09-30T15:10:41;14.30;99.90
59307;DHT22;47983;53.016;-2.260;2023-09-30T15:13:09;14.30;99.90
59307;DHT22;47983;53.016;-2.260;2023-09-30T15:15:37;14.30;99.90
59307;DHT22;47983;53.016;-2.260;2023-09-30T15:18:05;14.30;99.90
59307;DHT22;47983;53.016;-2.260;2023-09-30T15:20:39;14.20;99.90
59307;DHT22;47983;53.016;-2.260;2023-09-30T15:23:07;14.30;99.90
59307;DHT22;47983;53.016;-2.260;2023-09-30T15:25:40;14.20;99.90
59307;DHT22;47983;53.016;-2.260;2023-09-30T15:28:09;14.20;99.90
59307;DHT22;47983;53.016;-2.260;2023-09-30T15:30:38;14.10;99.90
59307;DHT22;47983;53.016;-2.260;2023-09-30T15:33:06;14.10;99.90
59307;DHT22;47983;53.016;-2.260;2023-09-30T15:35:33;14.10;99.90
59307;DHT22;47983;53.016;-2.260;2023-09-30T15:38:02;14.10;99.90
59307;DHT22;47983;53.016;-2.260;2023-09-30T15:40:30;14.00;99.90